Time;durP1;ratioP1;P1;durP2;ratioP2;P2;SDS_P1;SDS_P2;PMS_P1;PMS_P2;Temp;Humidity;BMP_temperature;BMP_pressure;BME280_temperature;BME280_humidity;BME280_pressure;Samples;Min_cycle;Max_cycle;Signal;HPM_P1;HPM_P2
2023/02/08 00:02:15;;;;;;;18.42;10.25;;;;;;;0.10;52.24;101893.22;5072193;28;20544;-37
2023/02/08 00:04:41;;;;;;;20.00;9.98;;;;;;;-0.04;51.61;101899.41;5054022;28;20020;-37
2023/02/08 00:07:06;;;;;;;22.25;10.10;;;;;;;-0.13;52.10;101890.38;5070913;28;20024;-37
2023/02/08 00:09:31;;;;;;;20.48;10.15;;;;;;;0.05;52.31;101911.06;5071809;28;20432;-37
2023/02/08 00:11:57;;;;;;;20.90;9.88;;;;;;;0.14;52.70;101918.31;5070434;28;20060;-38
2023/02/08 00:14:22;;;;;;;20.65;10.38;;;;;;;0.04;52.46;101915.50;5072096;28;20109;-37
2023/02/08 00:16:48;;;;;;;19.50;9.00;;;;;;;-0.01;52.25;101901.84;5071853;28;20067;-37
2023/02/08 00:19:13;;;;;;;18.65;9.43;;;;;;;-0.11;52.08;101888.50;5071622;28;20037;-38
2023/02/08 00:21:39;;;;;;;18.88;9.70;;;;;;;0.09;52.85;101923.03;5071886;28;20054;-37
2023/02/08 00:24:06;;;;;;;23.30;10.48;;;;;;;0.07;53.09;101919.69;5072049;28;20075;-38
2023/02/08 00:26:31;;;;;;;21.80;9.52;;;;;;;-0.01;53.20;101909.72;5071646;28;20032;-37
2023/02/08 00:28:56;;;;;;;18.50;9.70;;;;;;;-0.09;54.41;101909.38;5071360;28;20029;-37
2023/02/08 00:31:22;;;;;;;20.67;10.63;;;;;;;-0.10;54.91;101899.81;5070361;28;20708;-37
2023/02/08 00:33:47;;;;;;;23.15;11.13;;;;;;;-0.33;55.04;101888.28;5071372;28;20515;-37
2023/02/08 00:36:13;;;;;;;20.08;10.85;;;;;;;-0.43;55.27;101891.53;5071664;28;20036;-38
2023/02/08 00:38:39;;;;;;;20.52;10.05;;;;;;;-0.55;54.92;101918.56;5071317;28;20032;-38
2023/02/08 00:41:04;;;;;;;23.95;11.55;;;;;;;-0.61;54.89;101924.19;5071087;28;20448;-37
2023/02/08 00:43:30;;;;;;;23.30;10.88;;;;;;;-0.73;55.57;101901.41;5070906;28;20028;-38
2023/02/08 00:45:58;;;;;;;20.25;10.25;;;;;;;-0.89;55.57;101905.00;5071396;28;20032;-37
2023/02/08 00:48:24;;;;;;;23.17;10.60;;;;;;;-0.85;55.68;101911.72;5071433;28;20536;-37
2023/02/08 00:50:59;;;;;;;23.08;11.20;;;;;;;-0.94;56.60;101891.38;5081061;28;20075;-37
2023/02/08 00:53:25;;;;;;;19.90;9.10;;;;;;;-0.95;56.63;101896.72;5080491;28;20114;-37
2023/02/08 00:55:54;;;;;;;21.45;10.18;;;;;;;-0.89;56.75;101912.88;5076660;28;20029;-38
2023/02/08 00:58:20;;;;;;;21.10;10.73;;;;;;;-0.94;56.84;101922.81;5071257;28;20025;-37
2023/02/08 01:00:45;;;;;;;18.92;9.60;;;;;;;-1.09;57.42;101921.16;5070980;28;20412;-37
2023/02/08 01:03:11;;;;;;;20.58;11.15;;;;;;;-1.07;56.52;101921.91;5070974;28;20029;-38
2023/02/08 01:05:37;;;;;;;19.17;9.30;;;;;;;-1.34;56.93;101896.53;5070667;28;20029;-37
2023/02/08 01:08:03;;;;;;;19.02;10.20;;;;;;;-1.23;57.76;101912.44;5070934;28;20031;-36
2023/02/08 01:10:29;;;;;;;23.83;10.35;;;;;;;-1.36;57.05;101900.19;5070687;28;20405;-36
2023/02/08 01:12:54;;;;;;;22.45;9.50;;;;;;;-1.32;58.49;101914.78;5071019;28;20033;-38
2023/02/08 01:15:20;;;;;;;20.85;10.30;;;;;;;-1.48;59.32;101881.69;5070975;28;20052;-37
2023/02/08 01:17:45;;;;;;;22.00;9.95;;;;;;;-1.26;58.97;101886.41;5070860;28;20025;-37
2023/02/08 01:20:10;;;;;;;24.70;10.50;;;;;;;-1.29;59.57;101891.88;5070733;28;20032;-37
2023/02/08 01:22:36;;;;;;;23.88;10.93;;;;;;;-1.27;59.23;101890.00;5070576;28;20099;-37
2023/02/08 01:25:01;;;;;;;22.60;10.57;;;;;;;-1.29;59.80;101897.09;5070696;28;20028;-38
2023/02/08 01:27:27;;;;;;;22.58;10.63;;;;;;;-1.36;59.31;101859.16;5070403;28;20472;-37
2023/02/08 01:29:55;;;;;;;19.80;9.18;;;;;;;-1.25;58.61;101893.34;5070700;28;20051;-37
2023/02/08 01:32:20;;;;;;;21.58;10.18;;;;;;;-1.49;59.23;101868.69;5070382;28;20047;-37
2023/02/08 01:34:46;;;;;;;23.27;10.65;;;;;;;-1.38;59.58;101886.38;5069155;28;20111;-37
2023/02/08 01:37:11;;;;;;;21.38;10.30;;;;;;;-1.33;58.99;101906.06;5070186;28;20484;-37
2023/02/08 01:39:37;;;;;;;23.83;11.55;;;;;;;-1.35;59.33;101907.94;5069704;28;20053;-37
2023/02/08 01:42:02;;;;;;;22.85;10.27;;;;;;;-1.48;59.69;101904.41;5070366;28;20026;-36
2023/02/08 01:45:05;;;;;;;24.13;11.18;;;;;;;-1.50;59.92;101903.66;5070007;28;20055;-36
2023/02/08 01:47:31;;;;;;;21.38;10.63;;;;;;;-1.98;61.64;101905.72;5072457;28;20548;-37
2023/02/08 01:49:56;;;;;;;20.83;10.32;;;;;;;-1.89;61.73;101902.56;5078801;28;20131;-36
2023/02/08 01:52:27;;;;;;;22.27;9.88;;;;;;;-1.85;61.31;101910.13;5070536;28;20039;-37
2023/02/08 01:54:58;;;;;;;22.17;10.63;;;;;;;-1.97;61.80;101883.88;5061520;28;20115;-36
2023/02/08 01:57:24;;;;;;;24.42;11.43;;;;;;;-1.87;62.83;101916.38;5090061;28;20028;-37
2023/02/08 01:59:58;;;;;;;27.80;11.57;;;;;;;-1.85;62.61;101919.75;5089856;28;20035;-36
2023/02/08 02:02:24;;;;;;;25.83;11.40;;;;;;;-1.89;63.01;101923.47;5090019;28;20488;-37
2023/02/08 02:04:51;;;;;;;26.48;12.15;;;;;;;-2.03;63.11;101927.75;5090194;28;20043;-37
2023/02/08 02:07:18;;;;;;;25.48;12.40;;;;;;;-1.84;63.02;101937.09;5089771;28;20107;-37
2023/02/08 02:09:52;;;;;;;25.70;11.50;;;;;;;-1.78;62.98;101941.13;5071797;28;20039;-37
2023/02/08 02:12:19;;;;;;;26.55;12.40;;;;;;;-1.99;63.25;101896.19;5089842;28;20039;-37
2023/02/08 02:14:44;;;;;;;30.42;13.57;;;;;;;-1.98;63.60;101924.00;5089630;28;20967;-37
2023/02/08 02:17:12;;;;;;;25.15;11.93;;;;;;;-1.80;63.99;101943.81;5089647;28;20020;-37
2023/02/08 02:20:15;;;;;;;27.35;12.40;;;;;;;-1.62;63.83;101958.41;5089709;28;20039;-36
2023/02/08 02:23:12;;;;;;;29.08;12.27;;;;;;;-1.57;63.42;101965.13;5089678;28;20028;-37
2023/02/08 02:25:46;;;;;;;26.67;12.60;;;;;;;-1.67;64.22;101970.13;5089497;28;20104;-37
2023/02/08 02:28:36;;;;;;;24.08;11.60;;;;;;;-1.70;63.89;101965.03;5089787;28;20134;-37
2023/02/08 02:31:13;;;;;;;28.70;13.02;;;;;;;-1.71;64.63;101964.22;5089219;28;20038;-37
2023/02/08 02:34:08;;;;;;;26.45;11.93;;;;;;;-1.67;64.59;101972.72;5089260;28;20023;-37
2023/02/08 02:36:50;;;;;;;21.70;11.75;;;;;;;-1.76;64.20;101974.09;5071686;28;20048;-36
2023/02/08 02:39:44;;;;;;;27.58;12.80;;;;;;;-1.69;64.06;101978.03;5089299;28;20059;-37
2023/02/08 02:45:20;;;;;;;28.88;12.60;;;;;;;-1.60;64.86;101975.81;5084842;28;20048;-37
2023/02/08 02:48:00;;;;;;;25.92;11.32;;;;;;;-1.51;64.71;101978.72;5081827;28;20081;-38
2023/02/08 02:50:39;;;;;;;27.83;13.18;;;;;;;-1.70;65.37;101968.50;5089201;28;20016;-37
2023/02/08 02:53:08;;;;;;;25.65;11.90;;;;;;;-1.68;65.35;101974.47;5087580;28;20574;-37
2023/02/08 02:55:42;;;;;;;28.83;12.60;;;;;;;-1.79;65.02;101983.94;5078705;28;20578;-37
2023/02/08 02:58:10;;;;;;;23.45;11.45;;;;;;;-1.90;64.90;101971.47;5069192;28;20020;-37
2023/02/08 03:00:36;;;;;;;26.55;11.77;;;;;;;-1.91;64.00;101972.41;5050956;28;20115;-37
2023/02/08 03:03:02;;;;;;;21.45;10.70;;;;;;;-2.11;63.77;101994.50;5068999;28;20119;-36
2023/02/08 03:05:29;;;;;;;24.08;11.13;;;;;;;-2.06;63.88;101992.47;5068715;28;20641;-37
2023/02/08 03:07:54;;;;;;;29.25;11.27;;;;;;;-1.90;63.69;101993.25;5069308;28;20476;-37
2023/02/08 03:11:04;;;;;;;28.13;12.68;;;;;;;-2.00;63.31;101999.94;5069136;28;20032;-36
2023/02/08 03:13:38;;;;;;;25.90;12.32;;;;;;;-1.93;63.49;102000.44;5023971;28;20059;-37
2023/02/08 03:16:36;;;;;;;24.13;11.95;;;;;;;-1.83;63.76;102002.41;5069134;28;20032;-37
2023/02/08 03:19:33;;;;;;;28.77;13.23;;;;;;;-1.72;63.87;101985.22;5040873;28;20041;-37
2023/02/08 03:22:18;;;;;;;26.27;11.63;;;;;;;-1.82;63.00;101971.84;5069200;28;20049;-36
2023/02/08 03:24:54;;;;;;;25.52;10.90;;;;;;;-1.99;63.50;101974.63;5068915;28;20592;-37
2023/02/08 03:28:00;;;;;;;23.23;11.82;;;;;;;-1.76;63.01;102004.66;5068536;28;20028;-37
2023/02/08 03:30:50;;;;;;;24.92;10.95;;;;;;;-1.93;63.62;102008.28;5068045;28;20040;-36
2023/02/08 03:34:08;;;;;;;20.20;10.30;;;;;;;-2.05;63.92;102005.41;5067402;28;20121;-37
2023/02/08 03:36:52;;;;;;;25.30;12.65;;;;;;;-1.99;63.43;102006.00;5021929;28;20418;-37
2023/02/08 03:39:25;;;;;;;27.08;13.15;;;;;;;-2.22;63.88;101971.59;5068660;28;20051;-37
2023/02/08 03:41:56;;;;;;;25.05;11.82;;;;;;;-2.06;63.56;101995.91;5071740;28;20115;-37
2023/02/08 03:44:33;;;;;;;27.85;12.90;;;;;;;-1.93;63.28;102016.13;5083510;28;20610;-37
2023/02/08 03:47:10;;;;;;;29.33;12.80;;;;;;;-1.93;63.37;102022.19;5072729;28;20480;-37
2023/02/08 03:49:38;;;;;;;24.25;12.15;;;;;;;-1.98;63.82;102023.38;5072248;28;20033;-36
2023/02/08 03:52:08;;;;;;;25.90;11.45;;;;;;;-2.17;63.35;102000.91;5072280;28;20040;-37
2023/02/08 03:54:43;;;;;;;28.65;13.05;;;;;;;-2.05;63.82;102004.59;5076693;28;20093;-37
2023/02/08 03:57:37;;;;;;;26.13;12.40;;;;;;;-1.85;63.61;102033.03;5077913;28;20059;-37
2023/02/08 04:00:09;;;;;;;55.63;27.48;;;;;;;-1.88;63.19;102032.38;5072232;28;20028;-37
2023/02/08 04:02:40;;;;;;;27.15;13.02;;;;;;;-1.80;63.41;102024.91;5082999;28;20533;-37
2023/02/08 04:05:06;;;;;;;29.00;11.88;;;;;;;-1.78;62.71;102025.66;5054729;28;20126;-37
2023/02/08 04:07:32;;;;;;;30.63;13.27;;;;;;;-1.81;62.14;102025.84;5071468;28;20036;-37
2023/02/08 04:09:57;;;;;;;28.52;12.73;;;;;;;-2.03;62.65;102021.88;5072126;28;20082;-37
2023/02/08 04:12:23;;;;;;;26.52;12.95;;;;;;;-2.10;63.41;102031.00;5072234;28;20028;-37
2023/02/08 04:14:48;;;;;;;26.58;13.00;;;;;;;-2.11;63.27;102036.31;5072182;28;20107;-37
2023/02/08 04:17:14;;;;;;;26.02;12.40;;;;;;;-2.13;63.37;102030.34;5071751;28;20056;-37
2023/02/08 04:19:39;;;;;;;21.95;10.90;;;;;;;-2.33;63.79;102015.78;5071640;28;20032;-37
2023/02/08 04:22:04;;;;;;;19.67;10.40;;;;;;;-2.43;64.88;102029.38;5071558;28;20108;-37
2023/02/08 04:24:30;;;;;;;27.75;12.70;;;;;;;-2.30;64.90;102039.16;5071686;28;20021;-37
2023/02/08 04:26:55;;;;;;;30.48;12.95;;;;;;;-2.28;65.02;102037.28;5071818;28;20027;-37
2023/02/08 04:29:21;;;;;;;28.38;12.52;;;;;;;-2.32;64.82;102027.94;5071500;28;20029;-37
2023/02/08 04:31:46;;;;;;;28.23;12.88;;;;;;;-2.19;64.21;102021.06;5071519;28;20458;-36
2023/02/08 04:34:12;;;;;;;30.15;12.43;;;;;;;-2.23;63.07;102020.41;5075487;28;20020;-37
2023/02/08 04:36:37;;;;;;;31.30;12.23;;;;;;;-2.30;63.21;102018.22;5091834;28;20468;-37
2023/02/08 04:39:02;;;;;;;30.23;13.07;;;;;;;-2.35;63.26;102009.81;5091929;28;20032;-36
2023/02/08 04:41:28;;;;;;;28.48;12.38;;;;;;;-1.98;62.99;102045.16;5085083;28;20062;-37
2023/02/08 04:43:53;;;;;;;24.85;12.60;;;;;;;-2.09;62.85;102035.28;5071688;28;20081;-38
2023/02/08 04:46:19;;;;;;;26.35;12.15;;;;;;;-1.92;62.13;102041.31;5071171;28;20054;-37
2023/02/08 04:48:44;;;;;;;26.75;12.10;;;;;;;-1.97;62.45;102025.91;5071269;28;20021;-37
2023/02/08 04:51:09;;;;;;;24.10;11.80;;;;;;;-1.94;62.29;102035.34;5036299;28;20469;-37
2023/02/08 04:53:35;;;;;;;26.02;12.48;;;;;;;-2.11;62.40;102026.69;5070481;28;20025;-37
2023/02/08 04:56:00;;;;;;;26.98;12.52;;;;;;;-1.84;61.09;102065.25;5081578;28;20035;-37
2023/02/08 04:58:26;;;;;;;29.38;13.13;;;;;;;-1.96;61.72;102068.56;5072235;28;20431;-37
2023/02/08 05:00:53;;;;;;;30.70;13.60;;;;;;;-2.06;62.33;102074.34;5071006;28;20039;-37
2023/02/08 05:03:19;;;;;;;25.80;12.13;;;;;;;-1.91;63.14;102095.31;5070610;28;20450;-36
2023/02/08 05:05:46;;;;;;;28.25;12.23;;;;;;;-1.86;61.64;102082.81;5070793;28;20032;-37
2023/02/08 05:08:12;;;;;;;26.05;11.77;;;;;;;-1.82;61.65;102089.53;5070961;28;20043;-37
2023/02/08 05:10:43;;;;;;;24.17;11.48;;;;;;;-1.90;62.20;102096.97;5071053;28;20028;-37
2023/02/08 05:13:08;;;;;;;28.58;12.95;;;;;;;-1.72;61.81;102103.78;5070946;28;20056;-37
2023/02/08 05:15:34;;;;;;;30.27;13.68;;;;;;;-1.39;61.71;102126.28;5070618;28;20111;-37
2023/02/08 05:17:59;;;;;;;25.77;12.43;;;;;;;-1.41;61.59;102122.91;5052820;28;20549;-37
2023/02/08 05:20:24;;;;;;;29.60;13.40;;;;;;;-1.21;60.91;102134.81;5070522;28;20031;-37
2023/02/08 05:22:50;;;;;;;29.05;13.43;;;;;;;-1.42;61.30;102110.78;5070881;28;20035;-37
2023/02/08 05:25:16;;;;;;;30.55;15.55;;;;;;;-1.50;61.54;102120.84;5070224;28;20480;-37
2023/02/08 05:27:42;;;;;;;32.75;17.13;;;;;;;-1.27;60.70;102130.81;5070521;28;20036;-37
2023/02/08 05:30:08;;;;;;;27.17;13.25;;;;;;;-1.13;59.79;102147.47;5070458;28;20020;-37
2023/02/08 05:32:34;;;;;;;25.45;11.95;;;;;;;-1.31;59.20;102138.94;5070495;28;20480;-37
2023/02/08 05:34:59;;;;;;;28.35;14.52;;;;;;;-1.16;59.63;102163.38;5070407;28;20021;-37
2023/02/08 05:37:25;;;;;;;46.35;21.98;;;;;;;-1.16;59.77;102166.00;5071511;28;20450;-37
2023/02/08 05:39:50;;;;;;;24.60;12.35;;;;;;;-1.25;59.39;102164.75;5088859;28;20055;-37
2023/02/08 05:42:15;;;;;;;24.48;12.23;;;;;;;-1.26;60.66;102169.13;5080593;28;20028;-37
2023/02/08 05:44:41;;;;;;;25.10;12.15;;;;;;;-1.12;60.12;102170.13;5070065;28;20528;-37
2023/02/08 05:47:06;;;;;;;30.45;13.65;;;;;;;-0.86;59.35;102176.38;5069844;28;20541;-36
2023/02/08 05:49:31;;;;;;;29.05;14.65;;;;;;;-1.01;58.88;102178.16;5069714;28;20028;-36
2023/02/08 05:51:57;;;;;;;32.65;17.38;;;;;;;-1.06;59.07;102164.53;5070171;28;20021;-37
2023/02/08 05:54:22;;;;;;;33.80;22.00;;;;;;;-0.89;59.14;102181.84;5070191;28;20040;-37
2023/02/08 05:56:50;;;;;;;53.63;32.97;;;;;;;-0.90;59.59;102167.91;5076323;28;20486;-37
2023/02/08 05:59:16;;;;;;;29.40;14.68;;;;;;;-1.13;60.89;102157.94;5073182;28;20483;-37
2023/02/08 06:01:41;;;;;;;56.20;24.58;;;;;;;-1.04;60.18;102178.38;5069609;28;20024;-37
2023/02/08 06:04:06;;;;;;;58.50;29.48;;;;;;;-0.98;60.96;102167.53;5068795;28;20044;-37
2023/02/08 06:06:34;;;;;;;41.20;16.52;;;;;;;-0.97;61.11;102184.91;5069854;28;20099;-37
2023/02/08 06:09:00;;;;;;;53.85;25.13;;;;;;;-1.14;61.13;102156.28;5069708;28;20021;-36
2023/02/08 06:11:26;;;;;;;48.63;30.95;;;;;;;-1.01;60.28;102158.03;5069491;28;20052;-37
2023/02/08 06:13:51;;;;;;;32.40;18.17;;;;;;;-0.90;59.97;102181.00;5028435;28;20485;-37
2023/02/08 06:16:17;;;;;;;29.27;13.48;;;;;;;-1.04;60.87;102166.09;5069737;28;20027;-37
2023/02/08 06:18:42;;;;;;;39.08;24.08;;;;;;;-0.76;60.14;102187.16;5069318;28;20028;-37
2023/02/08 06:21:08;;;;;;;35.00;17.83;;;;;;;-1.06;59.92;102165.34;5069681;28;20056;-38
2023/02/08 06:23:34;;;;;;;28.08;14.00;;;;;;;-1.06;61.20;102173.22;5067947;28;20124;-37
2023/02/08 06:25:59;;;;;;;35.60;20.13;;;;;;;-0.98;61.99;102203.31;5069750;28;20132;-38
2023/02/08 06:28:25;;;;;;;59.25;36.22;;;;;;;-0.79;60.70;102192.59;5069489;28;20031;-37
2023/02/08 06:30:51;;;;;;;47.15;29.63;;;;;;;-0.63;58.26;102204.69;5069532;28;20472;-36
2023/02/08 06:33:17;;;;;;;32.00;18.30;;;;;;;-0.74;58.85;102206.25;5071922;28;20529;-37
2023/02/08 06:35:49;;;;;;;27.95;13.43;;;;;;;-0.73;59.58;102200.09;5081418;28;20028;-37
2023/02/08 06:38:15;;;;;;;26.33;13.30;;;;;;;-0.68;59.63;102198.84;5081810;28;20032;-37
2023/02/08 06:40:41;;;;;;;26.45;13.10;;;;;;;-0.56;59.11;102214.78;5069156;28;20098;-38
2023/02/08 06:43:06;;;;;;;26.88;13.80;;;;;;;-0.51;59.05;102203.09;5069057;28;20424;-37
2023/02/08 06:45:32;;;;;;;27.88;12.90;;;;;;;-0.39;59.30;102216.38;5068952;28;20033;-38
2023/02/08 06:47:59;;;;;;;29.02;14.18;;;;;;;-0.67;59.79;102176.13;5051194;28;20074;-37
2023/02/08 06:50:25;;;;;;;28.03;13.53;;;;;;;-0.46;59.69;102215.91;5069168;28;20033;-38
2023/02/08 06:52:50;;;;;;;31.70;13.30;;;;;;;-0.67;59.10;102186.63;5069258;28;20267;-37
2023/02/08 06:55:15;;;;;;;29.52;14.07;;;;;;;-0.68;59.65;102211.97;5068974;28;20503;-38
2023/02/08 06:57:41;;;;;;;27.30;13.00;;;;;;;-0.41;59.24;102225.19;5069569;28;20029;-37
2023/02/08 07:00:10;;;;;;;29.30;13.38;;;;;;;-0.39;59.65;102201.47;5082364;28;20107;-37
2023/02/08 07:02:35;;;;;;;29.75;13.38;;;;;;;-0.31;59.25;102193.13;5072580;28;21086;-38
2023/02/08 07:05:00;;;;;;;33.58;14.75;;;;;;;-0.20;58.86;102211.69;5069312;28;20028;-37
2023/02/08 07:07:26;;;;;;;28.90;13.65;;;;;;;0.07;58.80;102224.81;5068862;28;20484;-38
2023/02/08 07:09:52;;;;;;;29.83;13.30;;;;;;;-0.16;58.25;102207.06;5069174;28;20032;-37
2023/02/08 07:12:19;;;;;;;31.67;14.07;;;;;;;0.06;58.35;102235.41;5069004;28;20499;-37
2023/02/08 07:14:44;;;;;;;67.47;31.05;;;;;;;-0.03;56.51;102229.81;5069107;28;20041;-37
2023/02/08 07:17:13;;;;;;;41.70;19.85;;;;;;;-0.07;56.97;102212.56;5072069;28;20117;-37
2023/02/08 07:19:39;;;;;;;41.25;17.73;;;;;;;-0.04;57.48;102243.88;5072903;28;20021;-37
2023/02/08 07:22:07;;;;;;;56.03;21.55;;;;;;;-0.27;58.07;102228.72;5073069;28;20095;-37
2023/02/08 07:24:37;;;;;;;33.75;15.10;;;;;;;-0.45;58.60;102207.97;5073003;28;20031;-37
2023/02/08 07:27:04;;;;;;;36.08;16.38;;;;;;;-0.30;58.47;102232.38;5075832;28;20047;-38
2023/02/08 07:29:31;;;;;;;38.05;18.52;;;;;;;-0.11;57.46;102232.06;5081264;28;20682;-38
2023/02/08 07:31:58;;;;;;;49.83;19.73;;;;;;;-0.13;57.01;102210.34;5072997;28;20024;-38
2023/02/08 07:34:24;;;;;;;37.63;16.30;;;;;;;-0.27;56.50;102210.38;5084088;28;20128;-37
2023/02/08 07:36:50;;;;;;;31.63;14.10;;;;;;;-0.13;57.45;102228.69;5072643;28;20462;-37
2023/02/08 07:39:15;;;;;;;33.60;14.35;;;;;;;-0.03;57.35;102208.81;5072336;28;20052;-37
2023/02/08 07:41:41;;;;;;;35.40;16.15;;;;;;;0.07;56.99;102216.13;5072338;28;20040;-37
2023/02/08 07:44:06;;;;;;;34.33;15.90;;;;;;;0.18;56.65;102211.00;5072311;28;20031;-37
2023/02/08 07:46:32;;;;;;;31.67;15.85;;;;;;;0.49;55.04;102240.53;5072586;28;20029;-38
2023/02/08 07:48:57;;;;;;;39.20;18.33;;;;;;;0.60;55.30;102240.69;5072548;28;20017;-37
2023/02/08 07:51:23;;;;;;;38.15;17.50;;;;;;;0.50;55.93;102237.81;5072112;28;20552;-37
2023/02/08 07:53:49;;;;;;;39.38;16.23;;;;;;;0.73;55.22;102240.72;5072416;28;20025;-37
2023/02/08 07:56:16;;;;;;;29.05;14.23;;;;;;;0.64;55.84;102218.53;5072350;28;20028;-38
2023/02/08 07:58:42;;;;;;;28.40;13.82;;;;;;;0.64;55.22;102234.28;5083437;28;20027;-37
2023/02/08 08:01:10;;;;;;;27.80;13.80;;;;;;;0.44;55.96;102222.47;5072344;28;20469;-37
2023/02/08 08:03:35;;;;;;;28.67;11.38;;;;;;;0.58;55.92;102234.69;5072007;28;20455;-37
2023/02/08 08:06:00;;;;;;;30.67;14.70;;;;;;;0.63;55.08;102235.22;5072236;28;20028;-38
2023/02/08 08:08:26;;;;;;;28.83;13.68;;;;;;;0.92;54.10;102232.44;5071985;28;20457;-37
2023/02/08 08:10:51;;;;;;;31.02;14.70;;;;;;;1.17;52.38;102236.91;5071858;28;20036;-37
2023/02/08 08:13:17;;;;;;;45.60;20.15;;;;;;;1.30;52.67;102247.44;5071703;28;20103;-37
2023/02/08 08:15:42;;;;;;;26.98;13.27;;;;;;;1.51;50.69;102248.59;5072046;28;20028;-37
2023/02/08 08:18:08;;;;;;;24.35;11.68;;;;;;;1.77;49.65;102266.97;5072085;28;20025;-37
2023/02/08 08:20:33;;;;;;;22.90;10.45;;;;;;;1.22;49.33;102218.19;5071759;28;20150;-37
2023/02/08 08:23:00;;;;;;;24.42;12.52;;;;;;;1.11;50.71;102232.91;5071940;28;20028;-37
2023/02/08 08:25:25;;;;;;;24.30;10.57;;;;;;;1.12;50.03;102247.72;5071433;28;20059;-37
2023/02/08 08:27:52;;;;;;;25.05;12.20;;;;;;;1.04;50.03;102252.66;5070532;28;20456;-37
2023/02/08 08:30:17;;;;;;;26.67;12.52;;;;;;;1.09;49.88;102232.19;5073233;28;20031;-37
2023/02/08 08:32:43;;;;;;;23.05;11.23;;;;;;;1.63;49.16;102256.56;5081164;28;20028;-37
2023/02/08 08:35:09;;;;;;;21.90;10.27;;;;;;;1.86;48.35;102245.31;5071213;28;20126;-37
2023/02/08 08:37:38;;;;;;;18.90;8.90;;;;;;;2.32;46.49;102265.69;5081031;28;20055;-37
2023/02/08 08:40:05;;;;;;;34.08;21.90;;;;;;;2.81;45.49;102258.63;5071906;28;20080;-37
2023/02/08 08:42:32;;;;;;;15.07;8.27;;;;;;;2.32;44.67;102247.25;5071353;28;20025;-38
2023/02/08 08:44:57;;;;;;;16.63;8.88;;;;;;;2.74;45.29;102244.25;5070981;28;20414;-37
2023/02/08 08:47:23;;;;;;;25.92;14.77;;;;;;;2.65;44.96;102256.28;5053056;28;20047;-38
2023/02/08 08:49:48;;;;;;;28.65;14.05;;;;;;;2.85;44.70;102269.78;5070963;28;20063;-38
2023/02/08 08:52:14;;;;;;;28.42;15.43;;;;;;;2.84;44.99;102268.09;5070727;28;20029;-38
2023/02/08 08:54:39;;;;;;;21.33;13.30;;;;;;;2.61;44.63;102275.91;5071697;28;20028;-37
2023/02/08 08:57:05;;;;;;;20.63;11.65;;;;;;;2.48;44.92;102275.13;5081523;28;20032;-38
2023/02/08 08:59:31;;;;;;;15.77;8.95;;;;;;;2.19;45.03;102264.91;5070835;28;20102;-37
2023/02/08 09:01:57;;;;;;;23.00;12.68;;;;;;;2.29;46.01;102278.22;5070786;28;20037;-38
2023/02/08 09:04:22;;;;;;;24.45;12.85;;;;;;;2.46;45.59;102282.28;5070802;28;20029;-37
2023/02/08 09:06:48;;;;;;;37.10;24.35;;;;;;;2.01;46.60;102262.63;5070647;28;20086;-38
2023/02/08 09:09:14;;;;;;;25.27;15.95;;;;;;;2.99;43.69;102273.06;5070331;28;20487;-37
2023/02/08 09:11:40;;;;;;;17.38;9.73;;;;;;;2.70;44.87;102277.88;5073084;28;20024;-37
2023/02/08 09:14:06;;;;;;;16.55;9.07;;;;;;;3.37;44.38;102276.38;5079399;28;20063;-37
2023/02/08 09:16:32;;;;;;;15.52;9.25;;;;;;;3.40;42.96;102278.78;5052896;28;20380;-37
2023/02/08 09:19:04;;;;;;;21.38;10.95;;;;;;;3.65;43.85;102287.47;5070421;28;20029;-37
2023/02/08 09:21:30;;;;;;;18.70;11.07;;;;;;;3.37;43.87;102274.59;5052470;28;20060;-37
2023/02/08 09:23:56;;;;;;;16.60;8.70;;;;;;;3.76;42.23;102276.91;5052242;28;20064;-37
2023/02/08 09:26:25;;;;;;;17.58;10.50;;;;;;;4.30;41.98;102291.97;5070374;28;20040;-38
2023/02/08 09:28:51;;;;;;;14.95;7.75;;;;;;;4.05;41.23;102276.44;5055984;28;20036;-38
2023/02/08 09:31:25;;;;;;;14.98;8.70;;;;;;;4.24;43.13;102281.91;5081635;28;20081;-38
2023/02/08 09:33:52;;;;;;;15.20;8.43;;;;;;;4.61;41.85;102281.56;5090474;28;20078;-38
2023/02/08 09:36:19;;;;;;;14.73;8.02;;;;;;;4.69;40.47;102281.78;5090485;28;20123;-38
2023/02/08 09:38:48;;;;;;;17.38;8.75;;;;;;;4.95;41.00;102281.47;5071956;28;20100;-38
2023/02/08 09:41:31;;;;;;;15.18;7.30;;;;;;;4.43;41.53;102287.41;5090072;28;20134;-37
2023/02/08 09:44:08;;;;;;;16.42;8.93;;;;;;;4.65;40.93;102279.53;5090023;28;20034;-37
2023/02/08 09:46:39;;;;;;;21.17;11.23;;;;;;;4.97;40.81;102256.56;5070761;28;20158;-37
2023/02/08 09:49:18;;;;;;;19.40;10.27;;;;;;;5.31;38.86;102247.56;5089367;28;20024;-36
2023/02/08 09:51:50;;;;;;;16.63;8.65;;;;;;;5.55;36.91;102264.00;5090346;28;20044;-37
2023/02/08 09:54:18;;;;;;;12.48;6.93;;;;;;;5.83;36.65;102258.97;5069632;28;20453;-37
2023/02/08 09:56:45;;;;;;;;;;;;;;;5.76;36.65;102273.69;5079299;28;20020;-38
2023/02/08 09:59:27;;;;;;;14.60;9.60;;;;;;;5.68;37.02;102263.81;5083433;28;19998;-38
2023/02/08 10:02:18;;;;;;;14.60;7.00;;;;;;;5.15;37.79;102272.69;5076607;28;20032;-37
2023/02/08 10:05:04;;;;;;;12.95;7.80;;;;;;;5.53;37.10;102270.41;5041975;28;20033;-37
2023/02/08 10:07:32;;;;;;;11.57;6.70;;;;;;;4.94;37.42;102253.31;5051367;28;20070;-37
2023/02/08 10:10:00;;;;;;;33.23;21.97;;;;;;;4.86;37.20;102235.44;5069496;28;20089;-37
2023/02/08 10:12:51;;;;;;;34.20;18.58;;;;;;;5.05;38.56;102266.50;5083327;28;20035;-37
2023/02/08 10:15:29;;;;;;;111.20;59.03;;;;;;;4.98;37.14;102245.00;5075614;28;20075;-38
2023/02/08 10:18:15;;;;;;;16.67;8.35;;;;;;;4.52;39.12;102258.56;5088543;28;20023;-39
2023/02/08 10:21:12;;;;;;;15.27;9.95;;;;;;;4.32;40.38;102254.88;5088347;28;20058;-37
2023/02/08 10:24:06;;;;;;;13.13;6.97;;;;;;;4.20;40.71;102240.88;5087951;28;20662;-37
2023/02/08 10:27:08;;;;;;;19.63;9.55;;;;;;;3.56;42.59;102244.16;5086961;28;20036;-37
2023/02/08 10:30:13;;;;;;;16.65;8.80;;;;;;;3.06;42.90;102231.25;5087163;28;20063;-37
2023/02/08 10:32:49;;;;;;;16.00;8.63;;;;;;;2.71;43.89;102232.09;5073322;28;20457;-38
2023/02/08 10:35:44;;;;;;;16.13;8.88;;;;;;;2.71;43.93;102236.53;5087580;28;20024;-37
2023/02/08 10:38:15;;;;;;;16.35;8.00;;;;;;;2.86;44.93;102229.28;5076134;28;20044;-37
2023/02/08 10:40:41;;;;;;;21.67;10.27;;;;;;;2.88;45.08;102237.91;5068904;28;20466;-38
2023/02/08 10:43:31;;;;;;;19.70;10.27;;;;;;;2.70;44.52;102229.63;5068962;28;20078;-37
2023/02/08 10:46:19;;;;;;;16.27;8.73;;;;;;;2.46;45.09;102229.63;5069449;28;20052;-37
2023/02/08 10:49:03;;;;;;;21.17;9.25;;;;;;;3.04;43.92;102233.16;5069137;28;20510;-36
2023/02/08 10:51:29;;;;;;;16.98;9.05;;;;;;;3.20;44.01;102222.31;5050189;28;20472;-37
2023/02/08 10:53:55;;;;;;;20.73;11.02;;;;;;;3.11;43.33;102238.84;5082329;28;20032;-37
2023/02/08 10:56:42;;;;;;;22.00;11.05;;;;;;;3.16;43.70;102226.97;5069888;28;20036;-37
2023/02/08 10:59:24;;;;;;;16.08;8.32;;;;;;;2.55;43.45;102232.41;5072148;28;20032;-37
2023/02/08 11:01:51;;;;;;;17.48;8.02;;;;;;;2.81;43.46;102212.03;5059671;28;20028;-37
2023/02/08 11:04:17;;;;;;;28.90;12.43;;;;;;;3.04;42.78;102225.25;5068744;28;20067;-37
2023/02/08 11:06:45;;;;;;;26.23;12.05;;;;;;;3.18;43.39;102230.31;5068997;28;20107;-37
2023/02/08 11:09:28;;;;;;;19.40;9.48;;;;;;;3.83;43.62;102236.72;5069052;28;20031;-38
2023/02/08 11:11:55;;;;;;;16.13;7.85;;;;;;;4.14;40.77;102212.31;5068851;28;20032;-37
2023/02/08 11:14:26;;;;;;;16.50;8.32;;;;;;;4.42;40.26;102232.88;5068923;28;20024;-38
2023/02/08 11:16:54;;;;;;;17.45;8.98;;;;;;;4.26;40.67;102215.75;5069046;28;20119;-37
2023/02/08 11:19:32;;;;;;;15.37;7.70;;;;;;;3.94;40.11;102216.53;5068750;28;20048;-37
2023/02/08 11:22:00;;;;;;;23.25;12.25;;;;;;;3.92;41.97;102229.84;5068726;28;20470;-38
2023/02/08 11:24:40;;;;;;;16.13;7.97;;;;;;;3.68;41.04;102211.53;5068817;28;20416;-37
2023/02/08 11:27:43;;;;;;;14.95;7.90;;;;;;;4.49;40.04;102227.91;5068544;28;20025;-37
2023/02/08 11:30:11;;;;;;;17.20;9.50;;;;;;;3.61;41.51;102232.28;5027044;28;20863;-37
2023/02/08 11:32:37;;;;;;;19.50;9.57;;;;;;;3.73;41.35;102227.84;5068834;28;20039;-36